M I D A S
Marine Information and Data Acquisition System
Tripno 368 of the Zeeleeuw from 2002-12-12 07:33:05 to 2002-12-12 14:35:26
Back to CruiseResearch ActivitiesStationsMapUnderway DataData graphs

EquipmentUnitsComments
TimeDGPSUTC
LatitudeDGPSDM.mWGS84
LongitudeDGPSDM.mWGS84
SpeedMeteo Stationm/sRelative wind speed
DirectionMeteo StationdegRelative wind direction
TemperatureMeteo Stationdeg CelciusAir temperature
PressureMeteo StationPaAtmospheric pressure
HumidityMeteo Station%Relative humidity
Missing or incorrect values are displayed as -999
Metereological data collected by the RV Zeeleeuw from 2002-12-12 07:33:05 to 2002-12-12 14:35:26
Time Latitude Longitude Speed Direction Temperature Pressure Humidity
2002-12-12 07:34 51°13.536 2°56.278 3.3 187 -1.1 101760 73
2002-12-12 07:35 51°13.544 2°56.29 3.5 114 -1.1 101760 74
2002-12-12 07:36 51°13.527 2°56.269 4.8 130 -1.1 101760 73
2002-12-12 07:37 51°13.527 2°56.261 2.8 105 -1.1 101770 74
2002-12-12 07:38 51°13.516 2°56.261 3.2 103 -1.1 101770 74
2002-12-12 07:39 51°13.512 2°56.258 4.4 107 -1.1 101770 74
2002-12-12 07:40 51°13.529 2°56.237 2 69 -1.1 101770 74
2002-12-12 07:41 51°13.544 2°56.199 2.4 43 -1.1 101780 74
2002-12-12 07:42 51°13.559 2°56.152 1.7 60 -1.1 101780 75
2002-12-12 07:43 51°13.582 2°56.082 2.2 23 -1 101780 75
2002-12-12 07:44 51°13.619 2°55.987 1.5 43 -1 101780 74
2002-12-12 07:45 51°13.665 2°55.869 2 25 -1.1 101790 75
2002-12-12 07:46 51°13.723 2°55.748 1.2 49 -1.1 101780 74
2002-12-12 07:47 51°13.806 2°55.646 1.3 179 -1.1 101780 75
2002-12-12 07:48 51°13.912 2°55.571 1.8 139 -1 101780 75
2002-12-12 07:49 51°14.019 2°55.495 1.7 126 -1 101780 75
2002-12-12 07:50 51°14.125 2°55.411 2.2 127 -1 101780 75
2002-12-12 07:51 51°14.224 2°55.304 0.7 120 -1.1 101780 75
2002-12-12 07:52 51°14.313 2°55.147 0.4 190 -1.1 101790 75
2002-12-12 07:53 51°14.406 2°54.931 0.5 202 -1 101800 76
2002-12-12 07:54 51°14.517 2°54.658 2.1 231 -1.1 101790 75
2002-12-12 07:55 51°14.625 2°54.352 2.3 248 -1.1 101790 75
2002-12-12 07:56 51°14.726 2°54.05 2 234 -1.1 101790 76
2002-12-12 07:57 51°14.832 2°53.723 2.1 239 -1.1 101800 76
2002-12-12 07:58 51°14.934 2°53.399 1.8 263 -1.1 101790 76
2002-12-12 07:59 51°15.037 2°53.072 2.2 251 -1 101780 77
2002-12-12 08:00 51°15.142 2°52.749 2.6 228 -0.9 101780 78
2002-12-12 08:01 51°15.248 2°52.43 1.8 231 -0.8 101780 77
2002-12-12 08:02 51°15.328 2°52.097 1.8 256 -0.9 101790 77
2002-12-12 08:03 51°15.389 2°51.757 3.7 287 -0.8 101780 78
2002-12-12 08:04 51°15.438 2°51.414 3.9 293 -0.8 101780 78
2002-12-12 08:05 51°15.465 2°51.064 4.7 290 -0.8 101780 78
2002-12-12 08:06 51°15.493 2°50.713 2.8 279 -0.8 101780 78
2002-12-12 08:07 51°15.526 2°50.365 3.4 283 -0.7 101790 79
2002-12-12 08:08 51°15.57 2°50.019 2.7 288 -0.7 101780 79
2002-12-12 08:09 51°15.629 2°49.692 2.1 293 -0.6 101780 79
2002-12-12 08:10 51°15.689 2°49.343 3.9 281 -0.6 101790 79
2002-12-12 08:11 51°15.747 2°49.003 2.9 276 -0.6 101790 80
2002-12-12 08:12 51°15.805 2°48.655 3.3 295 -0.6 101800 80
2002-12-12 08:13 51°15.863 2°48.308 3.6 294 -0.5 101790 80
2002-12-12 08:14 51°15.921 2°47.967 1.7 308 -0.5 101780 80
2002-12-12 08:15 51°15.982 2°47.619 3.5 295 -0.5 101790 80
2002-12-12 08:16 51°16.038 2°47.284 3 292 -0.5 101790 80
2002-12-12 08:17 51°16.102 2°46.946 3.5 281 -0.4 101790 81
2002-12-12 08:18 51°16.188 2°46.614 2.3 253 -0.4 101800 80
2002-12-12 08:19 51°16.294 2°46.301 2.6 271 -0.4 101800 81
2002-12-12 08:20 51°16.449 2°46.035 1.7 237 -0.3 101800 81
2002-12-12 08:21 51°16.614 2°45.772 1.5 217 -0.3 101790 81
2002-12-12 08:22 51°16.779 2°45.506 0.9 162 -0.2 101790 81
2002-12-12 08:23 51°16.944 2°45.242 0.7 150 -0.1 101800 82
2002-12-12 08:24 51°17.112 2°44.982 2 195   101810 81
2002-12-12 08:25 51°17.283 2°44.726 1.5 226 -0.1 101800 81
2002-12-12 08:26 51°17.448 2°44.486 1.3 103 -0.1 101800 81
2002-12-12 08:27 51°17.532 2°44.339 3.4 6 -0.2 101810 81
2002-12-12 08:28 51°17.547 2°44.289 1.6 345   101820 82
2002-12-12 08:29 51°17.551 2°44.278 4.6 307   101820 82
2002-12-12 08:30 51°17.55 2°44.267 5.8 307 0.1 101810 82
2002-12-12 08:31 51°17.548 2°44.257 6.1 304 0.1 101820 82
2002-12-12 08:32 51°17.543 2°44.25 7.4 292 0.2 101810 82
2002-12-12 08:33 51°17.538 2°44.249 7.1 278 0.1 101810 82
2002-12-12 08:34 51°17.533 2°44.252 7.7 263 0.1 101800 82
2002-12-12 08:35 51°17.531 2°44.258 7.1 257   101800 81
2002-12-12 08:36 51°17.529 2°44.268 6.2 248   101790 81
2002-12-12 08:37 51°17.527 2°44.279 7.8 257   101790 81
2002-12-12 08:38 51°17.523 2°44.288 9.1 264   101800 81
2002-12-12 08:39 51°17.518 2°44.296 6.6 269 -0.1 101790 81
2002-12-12 08:40 51°17.514 2°44.3 7.5 258   101790 81
2002-12-12 08:41 51°17.511 2°44.306 4.9 254 -0.1 101800 81
2002-12-12 08:42 51°17.51 2°44.315 6.9 241   101800 81
2002-12-12 08:43 51°17.511 2°44.327 6.5 221 0.1 101810 81
2002-12-12 08:44 51°17.514 2°44.341 6.4 219 0.1 101810 81
2002-12-12 08:45 51°17.52 2°44.35 6.4 214 0.1 101810 81
2002-12-12 08:46 51°17.529 2°44.354 5.6 196 0.1 101800 80
2002-12-12 08:47 51°17.541 2°44.354 5 194 0.2 101800 81
2002-12-12 08:48 51°17.552 2°44.351 6.7 149 0.2 101800 81
2002-12-12 08:49 51°17.565 2°44.351 6.8 168 0.2 101810 80
2002-12-12 08:50 51°17.58 2°44.356 5.8 163 0.2 101800 80
2002-12-12 08:51 51°17.595 2°44.359 7.2 142 0.3 101810 81
2002-12-12 08:52 51°17.611 2°44.362 6 128 0.2 101820 80
2002-12-12 08:53 51°17.653 2°44.367 5.2 90 0.2 101820 80
2002-12-12 08:54 51°17.686 2°44.319 5.9 17 0.2 101820 80
2002-12-12 08:55 51°17.717 2°44.269 6.2 68 0.2 101830 80
2002-12-12 08:56 51°17.734 2°44.265 6.6 105 0.3 101810 81
2002-12-12 08:57 51°17.755 2°44.267 5.6 122 0.4 101820 80
2002-12-12 08:58 51°17.778 2°44.277 7.4 132 0.3 101820 80
2002-12-12 08:59 51°17.799 2°44.29 6 146 0.2 101820 80
2002-12-12 09:00 51°17.816 2°44.306 7.7 165 0.3 101830 81
2002-12-12 09:01 51°17.833 2°44.327 6.1 169 0.4 101810 82
2002-12-12 09:02 51°17.849 2°44.35 7.4 170 0.4 101810 81
2002-12-12 09:03 51°17.863 2°44.376 6.8 177 0.3 101820 80
2002-12-12 09:04 51°17.876 2°44.4 6.8 179 0.3 101820 81
2002-12-12 09:05 51°17.887 2°44.426 4.6 184 0.3 101820 80
2002-12-12 09:06 51°17.894 2°44.45 6.5 219 0.2 101800 80
2002-12-12 09:07 51°17.9 2°44.475 7.2 217 0.3 101810 80
2002-12-12 09:08 51°17.911 2°44.576 8.3 177 0.4 101800 81
2002-12-12 09:09 51°17.977 2°44.719 8.1 168 0.3 101790 80
2002-12-12 09:10 51°18.063 2°44.868 9.2 172 0.4 101800 81
2002-12-12 09:11 51°18.152 2°45.018 8.1 172 0.4 101800 81
2002-12-12 09:12 51°18.24 2°45.173 8.3 173 0.5 101800 82
2002-12-12 09:13 51°18.329 2°45.329 8.4 179 0.5 101790 81
2002-12-12 09:14 51°18.42 2°45.486 9.2 179 0.5 101800 82
2002-12-12 09:15 51°18.51 2°45.642 7.7 174 0.5 101780 81
2002-12-12 09:16 51°18.599 2°45.795 9.5 170 0.4 101800 81
2002-12-12 09:17 51°18.677 2°45.931 7.1 168 0.3 101800 80
2002-12-12 09:18 51°18.746 2°46.044 7.1 174 0.3 101810 82
2002-12-12 09:19 51°18.815 2°46.158 6.9 179 0.3 101800 81
2002-12-12 09:20 51°18.889 2°46.281 7.6 172 0.3 101810 82
2002-12-12 09:21 51°18.965 2°46.406 7.9 166 0.3 101810 82
2002-12-12 09:22 51°19.041 2°46.53 7.4 175 0.3 101800 82
2002-12-12 09:23 51°19.118 2°46.658 7.7 174 0.3 101830 81
2002-12-12 09:24 51°19.198 2°46.782 7.9 179 0.3 101800 82
2002-12-12 09:25 51°19.278 2°46.904 7.1 176 0.2 101810 81
2002-12-12 09:26 51°19.357 2°47.027 8.6 177 0.1 101810 81
2002-12-12 09:27 51°19.436 2°47.145 9.1 172 0.1 101810 81
2002-12-12 09:28 51°19.518 2°47.27 5.6 179 0.1 101810 81
2002-12-12 09:29 51°19.6 2°47.393 7 184   101810 80
2002-12-12 09:30 51°19.672 2°47.501 7 173   101820 81
2002-12-12 09:31 51°19.73 2°47.57 6.6 150 0.1 101830 81
2002-12-12 09:32 51°19.776 2°47.619 7.3 159 0.1 101830 82
2002-12-12 09:33 51°19.813 2°47.655 5.7 151 0.2 101820 81
2002-12-12 09:34 51°19.839 2°47.683 6.1 160 0.1 101820 81
2002-12-12 09:35 51°19.86 2°47.705 5.5 179 0.1 101830 81
2002-12-12 09:36 51°19.879 2°47.718 5.9 171 0.1 101820 82
2002-12-12 09:37 51°19.896 2°47.722 5.8 150   101830 81
2002-12-12 09:38 51°19.909 2°47.721 5.5 121 0.1 101820 82
2002-12-12 09:39 51°19.919 2°47.719 6 123 0.1 101830 81
2002-12-12 09:40 51°19.929 2°47.714 5.7 127 0.1 101830 81
2002-12-12 09:41 51°19.938 2°47.711 6 112   101830 81
2002-12-12 09:42 51°19.945 2°47.709 5.1 109 0.1 101830 82
2002-12-12 09:43 51°19.951 2°47.707 5.1 100 0.1 101830 82
2002-12-12 09:44 51°19.957 2°47.705 6.4 88 0.2 101830 83
2002-12-12 09:45 51°19.963 2°47.704 5.5 76 0.2 101840 82
2002-12-12 09:46 51°19.97 2°47.704 5.3 65 0.1 101840 81
2002-12-12 09:47 51°19.979 2°47.702 5.9 80 0.1 101830 82
2002-12-12 09:48 51°19.987 2°47.699 6.2 76   101840 81
2002-12-12 09:49 51°19.998 2°47.691 6 65   101840 82
2002-12-12 09:50 51°20.018 2°47.672 4.4 34 0.1 101840 82
2002-12-12 09:51 51°20.036 2°47.641 5.2 7 0.1 101840 82
2002-12-12 09:52 51°20.043 2°47.61 1.5 309 0.1 101840 82
2002-12-12 09:53 51°20.042 2°47.583 4.1 304 0.1 101840 81
2002-12-12 09:54 51°20.035 2°47.564 5.7 296 0.2 101840 82
2002-12-12 09:55 51°20.027 2°47.553 6.6 293 0.3 101850 83
2002-12-12 09:56 51°20.019 2°47.547 6.5 274 0.3 101830 82
2002-12-12 09:57 51°20.012 2°47.546 6.6 251 0.3 101830 82
2002-12-12 09:58 51°20.008 2°47.55 6.7 240 0.3 101840 82
2002-12-12 09:59 51°20.004 2°47.559 7 234 0.3 101840 82
2002-12-12 10:00 51°20 2°47.571 7.6 221 0.3 101840 82
2002-12-12 10:01 51°20.002 2°47.586 6.7 210 0.2 101840 82
2002-12-12 10:02 51°20.006 2°47.603 7.1 202 0.2 101830 82
2002-12-12 10:03 51°20.016 2°47.62 6.3 191 0.1 101830 82
2002-12-12 10:04 51°20.03 2°47.638 6.6 180 0.2 101830 83
2002-12-12 10:05 51°20.047 2°47.657 6.9 166 0.2 101840 83
2002-12-12 10:06 51°20.065 2°47.677 6.1 175 0.3 101810 84
2002-12-12 10:07 51°20.078 2°47.7 6.6 194 0.3 101820 84
2002-12-12 10:08 51°20.086 2°47.723 6.4 212 0.4 101830 84
2002-12-12 10:09 51°20.087 2°47.743 6.3 245 0.2 101830 83
2002-12-12 10:10 51°20.082 2°47.756 6.7 269 0.3 101830 84
2002-12-12 10:11 51°20.072 2°47.756 5.7 288 0.4 101830 84
2002-12-12 10:12 51°20.065 2°47.737 4.4 314 0.3 101840 84
2002-12-12 10:13 51°20.064 2°47.706 4.4 358 0.3 101840 84
2002-12-12 10:14 51°20.072 2°47.669 5.5 10 0.4 101850 85
2002-12-12 10:15 51°20.087 2°47.626 5.2 354 0.3 101850 84
2002-12-12 10:16 51°20.094 2°47.517 3.4 302 0.3 101850 85
2002-12-12 10:17 51°20.093 2°47.218 5.2 303 0.4 101820 85
2002-12-12 10:18 51°20.089 2°46.872 4.4 271 0.4 101840 85
2002-12-12 10:19 51°20.076 2°46.511 6.8 281 0.4 101830 86
2002-12-12 10:20 51°20.041 2°46.153 7.5 279 0.5 101830 86
2002-12-12 10:21 51°19.949 2°45.827 10.6 278 0.5 101820 86
2002-12-12 10:22 51°19.821 2°45.535 9.7 269 0.6 101830 86
2002-12-12 10:23 51°19.693 2°45.245 10 276 0.6 101810 86
2002-12-12 10:24 51°19.571 2°44.947 10 280 0.6 101820 86
2002-12-12 10:25 51°19.45 2°44.648 9.5 275 0.7 101810 86
2002-12-12 10:26 51°19.329 2°44.349 11.3 283 0.6 101810 86
2002-12-12 10:27 51°19.206 2°44.051 11.4 279 0.7 101820 87
2002-12-12 10:28 51°19.104 2°43.843 10 271 0.6 101820 86
2002-12-12 10:29 51°19.041 2°43.838 9.6 236 0.6 101820 86
2002-12-12 10:30 51°18.999 2°43.871 9.8 256 0.6 101830 86
2002-12-12 10:31 51°18.926 2°43.878 9.6 269 0.6 101810 86
2002-12-12 10:32 51°18.856 2°43.874 8.6 228 0.6 101820 86
2002-12-12 10:33 51°18.842 2°43.894 7.6 212 0.7 101840 86
2002-12-12 10:34 51°18.846 2°43.904 7.4 178 0.6 101810 86
2002-12-12 10:35 51°18.858 2°43.917 5.7 158 0.6 101830 85
2002-12-12 10:36 51°18.872 2°43.935 6.6 157 0.8 101820 86
2002-12-12 10:37 51°18.886 2°43.948 6.6 168 0.7 101820 85
2002-12-12 10:38 51°18.899 2°43.957 7.3 161 0.8 101830 86
2002-12-12 10:39 51°18.912 2°43.963 6.1 151 0.8 101810 86
2002-12-12 10:40 51°18.925 2°43.964 7.5 148 0.7 101810 86
2002-12-12 10:41 51°18.939 2°43.962 6.1 155 0.7 101820 85
2002-12-12 10:42 51°18.952 2°43.957 6.3 142 0.7 101810 85
2002-12-12 10:43 51°18.965 2°43.952 5.7 120 0.7 101820 85
2002-12-12 10:44 51°18.977 2°43.941 6.5 134 0.8 101820 86
2002-12-12 10:45 51°18.992 2°43.938 5.9 118 0.8 101820 86
2002-12-12 10:46 51°19.045 2°43.921 3.5 27 0.7 101830 85
2002-12-12 10:47 51°19.032 2°43.795 9 264 0.7 101810 85
2002-12-12 10:48 51°18.959 2°43.803 8.8 257 0.8 101810 86
2002-12-12 10:49 51°18.913 2°43.809 8.6 245 0.8 101810 85
2002-12-12 10:50 51°18.898 2°43.82 7.8 222 0.8 101810 85
2002-12-12 10:51 51°18.898 2°43.821 6.4 203 0.8 101810 85
2002-12-12 10:52 51°18.904 2°43.828 7.1 166 0.9 101800 86
2002-12-12 10:53 51°18.915 2°43.843 6.9 174 0.9 101810 85
2002-12-12 10:54 51°18.925 2°43.861 7.4 167 0.8 101800 85
2002-12-12 10:55 51°18.933 2°43.879 7.9 197 0.9 101800 85
2002-12-12 10:56 51°18.937 2°43.893 7.8 216 0.9 101800 85
2002-12-12 10:57 51°18.937 2°43.902 7.4 224 0.8 101800 85
2002-12-12 10:58 51°18.934 2°43.904 7.7 249 0.8 101820 85
2002-12-12 10:59 51°18.929 2°43.9 6.7 230 0.8 101810 85
2002-12-12 11:00 51°18.922 2°43.898 8.4 246 0.9 101810 85
2002-12-12 11:01 51°18.909 2°43.892 8.4 273 1 101810 85
2002-12-12 11:02 51°18.892 2°43.868 9.9 303 1 101810 85
2002-12-12 11:03 51°18.878 2°43.822 2.8 317 1 101810 85
2002-12-12 11:04 51°18.876 2°43.764 1.3 335 1 101810 85
2002-12-12 11:05 51°18.886 2°43.7 7.1 15 0.9 101810 85
2002-12-12 11:06 51°18.91 2°43.643 5.7 30 0.8 101820 85
2002-12-12 11:07 51°18.941 2°43.604 6.5 56 0.9 101820 85
2002-12-12 11:08 51°18.974 2°43.583 5.2 65 1 101820 85
2002-12-12 11:09 51°19.005 2°43.578 7.2 103 0.9 101820 85
2002-12-12 11:10 51°19.032 2°43.579 6.1 127 0.9 101810 85
2002-12-12 11:11 51°19.057 2°43.592 6.3 137 1 101820 85
2002-12-12 11:12 51°19.124 2°43.6 4 50 1 101810 85
2002-12-12 11:13 51°19.141 2°43.492 8.6 293 1 101810 85
2002-12-12 11:14 51°19.088 2°43.378 9.2 288 1 101800 85
2002-12-12 11:15 51°19.026 2°43.271 8.3 285 1 101790 85
2002-12-12 11:16 51°18.966 2°43.161 10.1 289 1 101790 85
2002-12-12 11:17 51°18.908 2°43.05 9.7 286 1.1 101790 85
2002-12-12 11:18 51°18.86 2°42.953 8.3 297 1.1 101790 85
2002-12-12 11:19 51°18.819 2°42.867 9.4 293 1.1 101790 85
2002-12-12 11:20 51°18.782 2°42.785 8.8 291 1.1 101790 85
2002-12-12 11:21 51°18.748 2°42.705 9.2 294 1.1 101790 85
2002-12-12 11:22 51°18.714 2°42.627 9.5 296 1.1 101780 85
2002-12-12 11:23 51°18.678 2°42.553 8.8 290 1.1 101790 85
2002-12-12 11:24 51°18.64 2°42.487 9.1 288 1.2 101790 85
2002-12-12 11:25 51°18.6 2°42.429 9.3 280 1.2 101790 85
2002-12-12 11:26 51°18.554 2°42.37 9.9 283 1.1 101790 85
2002-12-12 11:27 51°18.466 2°42.272 10.5 271 1.1 101780 85
2002-12-12 11:28 51°18.358 2°42.159 11 277 1.2 101780 85
2002-12-12 11:29 51°18.248 2°42.042 10.8 284 1.2 101770 85
2002-12-12 11:30 51°18.149 2°41.935 9.1 276 1.2 101780 85
2002-12-12 11:31 51°18.056 2°41.831 9.6 276 1.2 101770 85
2002-12-12 11:32 51°17.965 2°41.727 10.5 277 1.2 101770 85
2002-12-12 11:33 51°17.87 2°41.638 10.9 272 1.2 101770 85
2002-12-12 11:34 51°17.776 2°41.561 10.8 279 1.2 101780 85
2002-12-12 11:35 51°17.691 2°41.484 10.1 280 1.2 101770 85
2002-12-12 11:36 51°17.612 2°41.401 10.1 277 1.2 101780 86
2002-12-12 11:37 51°17.534 2°41.318 9.4 268 1.2 101780 85
2002-12-12 11:38 51°17.454 2°41.234 9.9 279 1.2 101770 85
2002-12-12 11:39 51°17.377 2°41.171 9.7 258 1.2 101780 86
2002-12-12 11:40 51°17.326 2°41.18 8.6 227 1.2 101780 86
2002-12-12 11:41 51°17.307 2°41.208 8.2 201 1.1 101780 85
2002-12-12 11:42 51°17.302 2°41.234 7.1 199 1.1 101780 85
2002-12-12 11:43 51°17.302 2°41.253 7.4 200 1.2 101790 86
2002-12-12 11:44 51°17.301 2°41.265 7.3 196 1.1 101770 86
2002-12-12 11:45 51°17.298 2°41.271 6.7 210 1.2 101780 85
2002-12-12 11:46 51°17.296 2°41.274 6.6 216 1.2 101770 86
2002-12-12 11:47 51°17.294 2°41.275 7.2 203 1.2 101770 86
2002-12-12 11:48 51°17.294 2°41.276 6.5 212 1.2 101770 86
2002-12-12 11:49 51°17.294 2°41.276 7.5 215 1.2 101770 86
2002-12-12 11:50 51°17.294 2°41.273 6.4 209 1.1 101770 85
2002-12-12 11:51 51°17.294 2°41.27 7.3 210 1.2 101770 86
2002-12-12 11:52 51°17.295 2°41.267 8 206 1.2 101780 86
2002-12-12 11:53 51°17.295 2°41.263 6.5 209 1.2 101780 86
2002-12-12 11:54 51°17.294 2°41.258 6.4 216 1.2 101770 86
2002-12-12 11:55 51°17.293 2°41.251 6.9 224 1.3 101790 86
2002-12-12 11:56 51°17.29 2°41.242 6.3 234 1.3 101800 86
2002-12-12 11:57 51°17.285 2°41.226 7.4 242 1.3 101780 86
2002-12-12 11:58 51°17.277 2°41.21 7.4 244 1.3 101790 86
2002-12-12 11:59 51°17.268 2°41.198 7.5 225 1.3 101790 86
2002-12-12 12:00 51°17.261 2°41.192 7.7 209 1.2 101780 85
2002-12-12 12:01 51°17.259 2°41.192 6.4 188 1.2 101780 86
2002-12-12 12:02 51°17.268 2°41.196 7.6 166 1.3 101780 86
2002-12-12 12:03 51°17.275 2°41.202 7.9 162 1.3 101790 86
2002-12-12 12:04 51°17.283 2°41.211 7.2 173 1.3 101780 85
2002-12-12 12:05 51°17.288 2°41.222 6 179 1.3 101780 86
2002-12-12 12:06 51°17.291 2°41.231 7.7 177 1.4 101780 86
2002-12-12 12:07 51°17.293 2°41.241 5.9 189 1.4 101780 86
2002-12-12 12:08 51°17.294 2°41.251 6.6 194 1.5 101780 86
2002-12-12 12:09 51°17.292 2°41.26 5.6 186 1.5 101770 87
2002-12-12 12:10 51°17.29 2°41.27 6.7 178 1.5 101780 86
2002-12-12 12:11 51°17.287 2°41.283 7.9 200 1.5 101790 86
2002-12-12 12:12 51°17.283 2°41.295 6.2 183 1.5 101790 86
2002-12-12 12:13 51°17.28 2°41.307 6.4 194 1.6 101770 87
2002-12-12 12:14 51°17.278 2°41.317 5.8 183 1.5 101780 86
2002-12-12 12:15 51°17.277 2°41.323 5.2 181 1.6 101790 87
2002-12-12 12:16 51°17.277 2°41.323 6 188 1.6 101780 86
2002-12-12 12:17 51°17.279 2°41.318 5.8 172 1.6 101770 86
2002-12-12 12:18 51°17.282 2°41.308 6 173 1.7 101770 87
2002-12-12 12:19 51°17.286 2°41.297 6.8 164 1.8 101780 87
2002-12-12 12:20 51°17.289 2°41.292 6.1 174 1.7 101800 86
2002-12-12 12:21 51°17.288 2°41.295 7.3 208 1.7 101770 86
2002-12-12 12:22 51°17.275 2°41.302 7.7 229 1.6 101770 86
2002-12-12 12:23 51°17.252 2°41.29 7.1 263 1.6 101770 86
2002-12-12 12:24 51°17.233 2°41.251 8.4 296 1.7 101780 86
2002-12-12 12:25 51°17.221 2°41.197 3.8 337 1.7 101780 86
2002-12-12 12:26 51°17.214 2°41.141 2.9 316 1.8 101780 87
2002-12-12 12:27 51°17.209 2°41.082 1.3 328 1.7 101780 86
2002-12-12 12:28 51°17.202 2°41.007 6.9 303 1.6 101780 86
2002-12-12 12:29 51°17.15 2°40.882 8.8 277 1.6 101770 86
2002-12-12 12:30 51°17.031 2°40.802 12 250 1.7 101760 86
2002-12-12 12:31 51°16.858 2°40.75 12.1 248 1.8 101770 86
2002-12-12 12:32 51°16.698 2°40.693 11.8 255 1.8 101770 86
2002-12-12 12:33 51°16.544 2°40.636 11.4 256 1.8 101770 86
2002-12-12 12:34 51°16.391 2°40.578 12.6 248 1.9 101760 86
2002-12-12 12:35 51°16.237 2°40.521 10.3 255 1.9 101760 86
2002-12-12 12:36 51°16.083 2°40.463 10.9 253 1.9 101760 86
2002-12-12 12:37 51°15.93 2°40.404 11.9 251 1.9 101760 86
2002-12-12 12:38 51°15.778 2°40.335 11.6 260 1.9 101760 86
2002-12-12 12:39 51°15.625 2°40.266 13 253 2 101750 86
2002-12-12 12:40 51°15.473 2°40.2 12.3 256 1.9 101750 86
2002-12-12 12:41 51°15.322 2°40.132 12.1 258 1.9 101750 86
2002-12-12 12:42 51°15.173 2°40.063 12.9 260 1.9 101750 86
2002-12-12 12:43 51°15.023 2°39.995 13.7 257 1.9 101750 86
2002-12-12 12:44 51°14.873 2°39.925 12.2 256 1.9 101750 86
2002-12-12 12:45 51°14.724 2°39.854 12.3 262 1.9 101750 86
2002-12-12 12:46 51°14.578 2°39.854 12 229 2 101760 86
2002-12-12 12:47 51°14.48 2°39.985 9.6 203 1.9 101750 86
2002-12-12 12:48 51°14.465 2°40.13 9.1 178 1.9 101750 86
2002-12-12 12:49 51°14.482 2°40.266 7.9 178 2 101770 87
2002-12-12 12:50 51°14.499 2°40.398 8.1 177 1.9 101760 86
2002-12-12 12:51 51°14.509 2°40.499 6.7 184 1.9 101770 86
2002-12-12 12:52 51°14.511 2°40.581 6.8 181 1.9 101750 86
2002-12-12 12:53 51°14.52 2°40.654 7 174 1.9 101760 87
2002-12-12 12:54 51°14.506 2°40.725 10.6 231 1.9 101760 87
2002-12-12 12:55 51°14.43 2°40.779 8.7 228 1.9 101760 87
2002-12-12 12:56 51°14.337 2°40.879 11.1 229 2 101760 87
2002-12-12 12:57 51°14.247 2°40.941 10.4 234 1.9 101760 87
2002-12-12 12:58 51°14.157 2°40.996 9.9 232 2 101760 87
2002-12-12 12:59 51°14.077 2°41.052 9.2 236 1.9 101760 87
2002-12-12 13:00 51°14.069 2°41.038 6.6 242 1.9 101770 87
2002-12-12 13:01 51°14.06 2°41.023 8.2 229 1.9 101770 86
2002-12-12 13:02 51°14.048 2°41.019 6.4 186 1.9 101770 87
2002-12-12 13:03 51°14.047 2°41.015 6.6 145 2 101770 87
2002-12-12 13:04 51°14.051 2°41.006 7.4 145 2.1 101770 87
2002-12-12 13:05 51°14.058 2°40.993 7 137 2.1 101770 87
2002-12-12 13:06 51°14.064 2°40.977 7 142 2 101770 87
2002-12-12 13:07 51°14.069 2°40.963 7 139 1.9 101770 86
2002-12-12 13:08 51°14.074 2°40.948 6.2 138 2 101770 87
2002-12-12 13:09 51°14.079 2°40.938 5.8 141 2 101770 87
2002-12-12 13:10 51°14.088 2°40.96 7.8 168 2.1 101760 87
2002-12-12 13:11 51°14.096 2°40.986 8.5 160 2 101760 87
2002-12-12 13:12 51°14.102 2°41.003 8.2 159 2 101760 87
2002-12-12 13:13 51°14.107 2°41.011 6.6 152 2 101780 87
2002-12-12 13:14 51°14.11 2°41.013 7.5 178 2 101770 87
2002-12-12 13:15 51°14.113 2°41.01 7.2 156 2 101770 87
2002-12-12 13:16 51°14.115 2°41.006 6.2 161 2 101770 87
2002-12-12 13:17 51°14.118 2°40.998 7.1 161 2 101780 87
2002-12-12 13:18 51°14.122 2°40.989 6.6 151 2 101780 87
2002-12-12 13:19 51°14.124 2°40.979 6.7 160 2 101790 87
2002-12-12 13:20 51°14.124 2°40.976 6.4 164 1.9 101770 87
2002-12-12 13:21 51°14.118 2°40.984 7 198 1.9 101770 87
2002-12-12 13:22 51°14.102 2°40.995 7.5 225 1.9 101770 87
2002-12-12 13:23 51°14.075 2°41.006 6.8 220 2 101770 88
2002-12-12 13:24 51°14.041 2°41.012 8.3 232 2 101780 88
2002-12-12 13:25 51°14.012 2°41.026 8.7 210 2 101780 87
2002-12-12 13:26 51°13.995 2°41.044 6.4 196 1.9 101770 87
2002-12-12 13:27 51°13.979 2°41.058 7.8 220 2 101780 88
2002-12-12 13:28 51°13.96 2°41.065 8.1 220 1.9 101780 87
2002-12-12 13:29 51°13.937 2°41.069 8.8 234 1.9 101770 88
2002-12-12 13:30 51°13.874 2°41.169 10 203 1.9 101780 88
2002-12-12 13:31 51°13.898 2°41.438 8.6 189 2 101760 88
2002-12-12 13:32 51°13.941 2°41.715 8.2 189 1.9 101760 87
2002-12-12 13:33 51°13.982 2°41.977 9.3 193 1.9 101750 88
2002-12-12 13:34 51°14.019 2°42.225 8.2 191 1.9 101760 88
2002-12-12 13:35 51°14.056 2°42.476 8.3 186 1.9 101760 88
2002-12-12 13:36 51°14.094 2°42.719 8.6 189 1.9 101770 88
2002-12-12 13:37 51°14.131 2°42.963 8.4 183 1.9 101770 88
2002-12-12 13:38 51°14.166 2°43.192 8.3 184 1.9 101770 88
2002-12-12 13:39 51°14.199 2°43.412 8.9 178 1.9 101760 88
2002-12-12 13:40 51°14.23 2°43.617 8.5 179 1.9 101760 88
2002-12-12 13:41 51°14.27 2°43.825 9 177 1.9 101780 88
2002-12-12 13:42 51°14.313 2°44.029 8.5 174 1.9 101780 88
2002-12-12 13:43 51°14.357 2°44.233 8.6 178 1.9 101780 89
2002-12-12 13:44 51°14.399 2°44.436 7.8 176 1.9 101790 89
2002-12-12 13:45 51°14.442 2°44.642 8.9 179 1.9 101790 89
2002-12-12 13:46 51°14.484 2°44.839 9 175 2 101790 89
2002-12-12 13:47 51°14.528 2°45.052 8.7 179 2 101800 89
2002-12-12 13:48 51°14.571 2°45.259 9.1 175 2 101790 89
2002-12-12 13:49 51°14.613 2°45.465 8.5 170 2 101790 89
2002-12-12 13:50 51°14.646 2°45.677 9.6 176 2 101800 89
2002-12-12 13:51 51°14.677 2°45.89 7.6 179 2 101790 89
2002-12-12 13:52 51°14.708 2°46.105 7.4 183 2 101800 89
2002-12-12 13:53 51°14.74 2°46.319 7.7 179 2 101790 89
2002-12-12 13:54 51°14.771 2°46.524 8.3 184 2.1 101790 90
2002-12-12 13:55 51°14.805 2°46.743 8.7 178 2 101790 89
2002-12-12 13:56 51°14.838 2°46.955 7.9 181 2 101800 89
2002-12-12 13:57 51°14.871 2°47.167 8.1 174 2 101790 89
2002-12-12 13:58 51°14.907 2°47.382 8 181 2 101800 89
2002-12-12 13:59 51°14.941 2°47.59 7.7 179 2 101800 89
2002-12-12 14:00 51°14.975 2°47.796 8.4 176 2 101790 90
2002-12-12 14:01 51°15.012 2°48.016 7.5 182 2 101800 90
2002-12-12 14:02 51°15.045 2°48.222 6.3 186 2 101800 90
2002-12-12 14:03 51°15.081 2°48.445 6.4 184 2.1 101800 90
2002-12-12 14:04 51°15.115 2°48.654 7.6 175 2 101800 90
2002-12-12 14:05 51°15.15 2°48.869 6.7 186 2 101810 90
2002-12-12 14:06 51°15.186 2°49.083 7.3 187 2 101810 90
2002-12-12 14:07 51°15.222 2°49.296 6.7 186 2 101810 90
2002-12-12 14:08 51°15.256 2°49.511 6.8 189 2 101800 90
2002-12-12 14:09 51°15.29 2°49.725 7.3 188 2 101800 90
2002-12-12 14:10 51°15.323 2°49.938 8.2 189 2 101800 90
2002-12-12 14:11 51°15.354 2°50.145 6.7 179 2 101810 90
2002-12-12 14:12 51°15.389 2°50.37 7.9 180 2 101800 90
2002-12-12 14:13 51°15.414 2°50.55 6.6 181 2 101810 90
2002-12-12 14:14 51°15.435 2°50.69 7 179 2 101800 90
2002-12-12 14:15 51°15.453 2°50.81 6.8 168 1.9 101810 90
2002-12-12 14:16 51°15.472 2°50.936 7.4 172 1.9 101810 91
2002-12-12 14:17 51°15.491 2°51.058 6.7 176 1.9 101810 91
2002-12-12 14:18 51°15.51 2°51.188 6.5 176 1.9 101810 91
2002-12-12 14:19 51°15.527 2°51.388 8.3 202 1.9 101810 91
2002-12-12 14:20 51°15.465 2°51.627 10.5 219 1.9 101810 91
2002-12-12 14:21 51°15.366 2°51.849 10 212 1.9 101800 91
2002-12-12 14:22 51°15.287 2°52.076 8.7 215 1.8 101820 91
2002-12-12 14:23 51°15.229 2°52.318 9.6 210 1.8 101840 91
2002-12-12 14:24 51°15.167 2°52.559 9 212 1.8 101830 92
2002-12-12 14:25 51°15.1 2°52.814 10.1 216 1.8 101830 92
2002-12-12 14:26 51°15.037 2°53.054 10.2 216 1.9 101830 92
2002-12-12 14:27 51°14.973 2°53.299 8.9 216 1.9 101840 92
2002-12-12 14:28 51°14.908 2°53.534 9.6 218 1.8 101830 92
2002-12-12 14:29 51°14.835 2°53.77 9.3 212 1.9 101830 92
2002-12-12 14:30 51°14.759 2°54.013 9.5 212 1.9 101830 92
2002-12-12 14:31 51°14.68 2°54.256 9.5 216 1.9 101840 92
2002-12-12 14:32 51°14.606 2°54.491 10.6 222 1.9 101850 92
2002-12-12 14:33 51°14.518 2°54.715 11.2 223 1.9 101840 92
2002-12-12 14:34 51°14.428 2°54.935 10 222 1.9 101840 92
2002-12-12 14:35 51°14.327 2°55.159 7.5 224 1.8 101840 92